createdAt,value
2022-07-26T00:00:38.509Z,22.70
2022-07-26T00:03:05.623Z,22.60
2022-07-26T00:05:32.739Z,22.70
2022-07-26T00:08:10.743Z,22.60
2022-07-26T00:10:43.719Z,22.70
2022-07-26T00:13:11.333Z,22.70
2022-07-26T00:15:39.054Z,22.70
2022-07-26T00:18:06.483Z,22.70
2022-07-26T00:20:39.045Z,22.70
2022-07-26T00:23:06.211Z,22.70
2022-07-26T00:25:33.389Z,22.70
2022-07-26T00:28:00.644Z,22.70
2022-07-26T00:30:28.788Z,22.80
2022-07-26T00:32:55.675Z,22.80
2022-07-26T00:35:22.706Z,22.70
2022-07-26T00:37:49.743Z,22.70
2022-07-26T00:40:17.746Z,22.70
2022-07-26T00:42:44.837Z,22.70
2022-07-26T00:45:13.305Z,22.70
2022-07-26T00:47:40.518Z,22.50
2022-07-26T00:50:10.219Z,22.60
2022-07-26T00:52:37.294Z,22.50
2022-07-26T00:55:07.521Z,22.50
2022-07-26T00:57:36.099Z,22.40
2022-07-26T01:00:10.114Z,22.40
2022-07-26T01:02:37.273Z,22.50
2022-07-26T01:05:04.939Z,22.50
2022-07-26T01:07:31.973Z,22.50
2022-07-26T01:09:58.978Z,22.40
2022-07-26T01:12:25.875Z,22.30
2022-07-26T01:14:52.891Z,22.40
2022-07-26T01:17:19.796Z,22.30
2022-07-26T01:19:46.754Z,22.30
2022-07-26T01:22:14.815Z,22.20
2022-07-26T01:24:42.687Z,22.20
2022-07-26T01:27:09.656Z,22.20
2022-07-26T01:29:37.445Z,22.30
2022-07-26T01:32:05.736Z,22.20
2022-07-26T01:34:32.910Z,22.30
2022-07-26T01:37:00.086Z,22.30
2022-07-26T01:39:27.210Z,22.30
2022-07-26T01:41:56.823Z,22.30
2022-07-26T01:44:24.083Z,22.30
2022-07-26T01:46:51.060Z,22.20
2022-07-26T01:49:18.206Z,22.10
2022-07-26T01:51:45.505Z,22.00
2022-07-26T01:54:12.925Z,22.00
2022-07-26T01:56:39.836Z,22.00
2022-07-26T01:59:06.810Z,22.10
2022-07-26T02:01:37.875Z,22.10
2022-07-26T02:04:09.227Z,22.00
2022-07-26T02:06:37.317Z,22.00
2022-07-26T02:09:07.474Z,22.00
2022-07-26T02:11:34.678Z,21.90
2022-07-26T02:14:03.366Z,21.90
2022-07-26T02:16:30.339Z,21.90
2022-07-26T02:18:57.414Z,22.00
2022-07-26T02:21:24.813Z,22.00
2022-07-26T02:23:51.816Z,22.00
2022-07-26T02:26:18.714Z,22.00
2022-07-26T02:28:45.644Z,22.00
2022-07-26T02:31:15.568Z,22.00
2022-07-26T02:33:42.698Z,22.00
2022-07-26T02:36:09.607Z,22.10
2022-07-26T02:38:36.483Z,22.10
2022-07-26T02:41:03.514Z,22.10
2022-07-26T02:43:32.356Z,22.00
2022-07-26T02:46:02.213Z,22.00
2022-07-26T02:48:31.094Z,22.00
2022-07-26T02:50:58.363Z,22.10
2022-07-26T02:53:25.348Z,22.00
2022-07-26T02:55:52.306Z,22.00
2022-07-26T02:58:21.592Z,22.00
2022-07-26T03:00:48.895Z,21.90
2022-07-26T03:03:16.185Z,21.90
2022-07-26T03:05:43.508Z,21.90
2022-07-26T03:08:10.593Z,21.90
2022-07-26T03:10:37.566Z,21.90
2022-07-26T03:13:04.676Z,21.90
2022-07-26T03:15:31.864Z,21.80
2022-07-26T03:17:58.759Z,21.80
2022-07-26T03:20:25.881Z,21.80
2022-07-26T03:22:52.811Z,21.80
2022-07-26T03:25:19.833Z,21.70
2022-07-26T03:27:47.030Z,21.80
2022-07-26T03:30:14.655Z,21.70
2022-07-26T03:32:41.772Z,21.70
2022-07-26T03:35:09.097Z,21.70
2022-07-26T03:37:44.816Z,21.70
2022-07-26T03:40:14.863Z,21.70
2022-07-26T03:42:41.841Z,21.80
2022-07-26T03:45:09.701Z,21.80
2022-07-26T03:47:37.410Z,21.70
2022-07-26T03:50:08.179Z,21.60
2022-07-26T03:52:35.370Z,21.60
2022-07-26T03:55:22.712Z,21.60
2022-07-26T03:57:49.639Z,21.60
2022-07-26T04:00:16.609Z,21.50
2022-07-26T04:02:44.438Z,21.60
2022-07-26T04:05:11.561Z,21.60
2022-07-26T04:07:49.904Z,21.50
2022-07-26T04:10:22.654Z,21.60
2022-07-26T04:12:50.276Z,21.60
2022-07-26T04:15:19.164Z,21.60
2022-07-26T04:17:48.311Z,21.60
2022-07-26T04:20:15.821Z,21.60
2022-07-26T04:22:43.505Z,21.50
2022-07-26T04:25:11.158Z,21.50
2022-07-26T04:27:38.648Z,21.50
2022-07-26T04:30:12.366Z,21.50
2022-07-26T04:32:41.836Z,21.50
2022-07-26T04:35:09.223Z,21.40
2022-07-26T04:37:41.332Z,21.40
2022-07-26T04:40:10.900Z,21.40
2022-07-26T04:42:39.949Z,21.30
2022-07-26T04:45:08.819Z,21.40
2022-07-26T04:47:36.540Z,21.30
2022-07-26T04:50:04.691Z,21.30
2022-07-26T04:52:31.576Z,21.30
2022-07-26T04:55:00.877Z,21.30
2022-07-26T04:57:27.974Z,21.30
2022-07-26T05:00:10.133Z,21.30
2022-07-26T05:02:42.029Z,21.30
2022-07-26T05:05:09.486Z,21.40
2022-07-26T05:07:45.347Z,21.50
2022-07-26T05:10:13.085Z,21.50
2022-07-26T05:12:40.025Z,21.50
2022-07-26T05:15:13.550Z,21.50
2022-07-26T05:17:41.924Z,21.50
2022-07-26T05:20:10.908Z,21.60
2022-07-26T05:22:38.539Z,21.60
2022-07-26T05:25:06.460Z,21.70
2022-07-26T05:27:33.640Z,21.70
2022-07-26T05:30:00.924Z,21.70
2022-07-26T05:32:30.547Z,21.80
2022-07-26T05:34:57.528Z,21.70
2022-07-26T05:37:24.412Z,21.70
2022-07-26T05:39:51.366Z,21.80
2022-07-26T05:42:18.444Z,21.80
2022-07-26T05:44:45.714Z,21.90
2022-07-26T05:47:13.235Z,22.00
2022-07-26T05:49:40.880Z,22.00
2022-07-26T05:52:08.962Z,22.00
2022-07-26T05:54:36.465Z,21.90
2022-07-26T05:57:03.842Z,22.00
2022-07-26T05:59:31.243Z,22.00
2022-07-26T06:01:58.829Z,22.10
2022-07-26T06:04:27.039Z,22.20
2022-07-26T06:06:55.251Z,22.20
2022-07-26T06:09:24.284Z,22.20
2022-07-26T06:11:51.553Z,22.10
2022-07-26T06:14:19.027Z,22.10
2022-07-26T06:16:47.232Z,22.20
2022-07-26T06:19:14.476Z,22.20
2022-07-26T06:21:42.749Z,22.20
2022-07-26T06:24:10.123Z,22.40
2022-07-26T06:26:37.484Z,22.30
2022-07-26T06:29:04.846Z,22.30
2022-07-26T06:31:31.854Z,22.50
2022-07-26T06:33:58.863Z,22.40
2022-07-26T06:36:30.219Z,22.50
2022-07-26T06:38:57.439Z,22.50
2022-07-26T06:41:24.448Z,22.50
2022-07-26T06:43:51.346Z,22.50
2022-07-26T06:46:19.442Z,22.60
2022-07-26T06:48:52.701Z,22.60
2022-07-26T06:51:20.136Z,22.60
2022-07-26T06:53:47.195Z,22.70
2022-07-26T06:56:15.089Z,22.70
2022-07-26T06:58:42.765Z,22.90
2022-07-26T07:01:09.944Z,23.10
2022-07-26T07:03:37.367Z,23.20
2022-07-26T07:06:04.552Z,23.30
2022-07-26T07:08:31.561Z,23.30
2022-07-26T07:10:58.908Z,23.40
2022-07-26T07:13:26.296Z,23.30
2022-07-26T07:15:53.725Z,23.40
2022-07-26T07:18:21.693Z,23.30
2022-07-26T07:20:48.648Z,23.30
2022-07-26T07:23:16.017Z,23.20
2022-07-26T07:25:44.926Z,23.00
2022-07-26T07:28:12.574Z,23.00
2022-07-26T07:30:39.900Z,23.10
2022-07-26T07:33:09.411Z,23.30
2022-07-26T07:35:50.601Z,23.60
2022-07-26T07:38:17.931Z,23.70
2022-07-26T07:40:46.097Z,23.70
2022-07-26T07:43:13.043Z,23.90
2022-07-26T07:45:39.917Z,24.00
2022-07-26T07:48:06.932Z,24.20
2022-07-26T07:50:33.866Z,24.40
2022-07-26T07:53:02.095Z,24.60
2022-07-26T07:55:41.138Z,24.90
2022-07-26T07:58:10.745Z,25.00
2022-07-26T08:00:37.745Z,25.20
2022-07-26T08:03:05.869Z,25.50
2022-07-26T08:05:32.818Z,25.70
2022-07-26T08:07:59.830Z,25.90
2022-07-26T08:10:27.154Z,26.10
2022-07-26T08:12:54.020Z,26.10
2022-07-26T08:15:23.510Z,26.20
2022-07-26T08:17:54.571Z,26.40
2022-07-26T08:20:24.868Z,26.60
2022-07-26T08:22:52.748Z,27.00
2022-07-26T08:25:20.259Z,27.10
2022-07-26T08:28:02.574Z,26.90
2022-07-26T08:30:31.601Z,26.60
2022-07-26T08:32:58.836Z,26.50
2022-07-26T08:35:25.828Z,26.70
2022-07-26T08:37:52.708Z,26.80
2022-07-26T08:40:19.725Z,26.80
2022-07-26T08:43:04.888Z,26.90
2022-07-26T08:45:32.394Z,27.10
2022-07-26T08:48:18.325Z,27.20
2022-07-26T08:50:45.973Z,27.20
2022-07-26T08:53:13.413Z,27.10
2022-07-26T08:56:05.454Z,27.10
2022-07-26T08:58:27.736Z,27.20
2022-07-26T09:01:09.145Z,27.50
2022-07-26T09:03:38.192Z,27.80
2022-07-26T09:06:11.800Z,28.00
2022-07-26T09:08:38.943Z,28.00
2022-07-26T09:11:24.175Z,27.80
2022-07-26T09:13:57.952Z,27.70
2022-07-26T09:16:24.879Z,27.40
2022-07-26T09:18:51.952Z,27.30
2022-07-26T09:21:36.511Z,27.50
2022-07-26T09:24:03.633Z,27.90
2022-07-26T09:26:30.886Z,28.20
2022-07-26T09:29:12.895Z,28.30
2022-07-26T09:31:40.483Z,28.10
2022-07-26T09:34:08.308Z,28.00
2022-07-26T09:36:54.110Z,27.70
2022-07-26T09:39:22.803Z,27.60
2022-07-26T09:42:26.700Z,27.80
2022-07-26T09:44:55.514Z,27.90
2022-07-26T09:47:23.134Z,28.10
2022-07-26T09:49:50.076Z,28.30
2022-07-26T09:52:19.729Z,28.60
2022-07-26T09:54:49.296Z,28.80
2022-07-26T09:57:17.763Z,29.00
2022-07-26T09:59:45.438Z,29.00
2022-07-26T10:02:14.273Z,29.10
2022-07-26T10:04:42.723Z,29.40
2022-07-26T10:07:10.860Z,29.60
2022-07-26T10:09:52.779Z,29.90
2022-07-26T10:12:21.557Z,30.10
2022-07-26T10:14:51.709Z,30.20
2022-07-26T10:17:31.412Z,30.20
2022-07-26T10:20:09.370Z,30.00
2022-07-26T10:22:42.620Z,30.00
2022-07-26T10:25:18.614Z,29.80
2022-07-26T10:27:51.852Z,30.00
2022-07-26T10:30:22.649Z,30.10
2022-07-26T10:33:06.310Z,30.20
2022-07-26T10:35:44.866Z,30.40
2022-07-26T10:38:22.717Z,30.40
2022-07-26T10:41:07.891Z,30.20
2022-07-26T10:43:43.031Z,30.10
2022-07-26T10:46:16.457Z,30.00
2022-07-26T10:49:06.917Z,29.70
2022-07-26T10:51:39.431Z,29.90
2022-07-26T10:54:09.197Z,30.10
2022-07-26T10:56:36.998Z,30.20
2022-07-26T10:59:05.265Z,29.80
2022-07-26T11:01:37.183Z,29.50
2022-07-26T11:04:04.673Z,29.30
2022-07-26T11:06:33.150Z,29.40
2022-07-26T11:09:10.560Z,29.50
2022-07-26T11:11:37.527Z,29.80
2022-07-26T11:14:10.292Z,30.00
2022-07-26T11:16:41.537Z,30.10
2022-07-26T11:19:19.432Z,29.70
2022-07-26T11:21:52.739Z,29.30
2022-07-26T11:24:21.986Z,29.10
2022-07-26T11:26:49.111Z,29.10
2022-07-26T11:29:25.519Z,29.20
2022-07-26T11:32:16.457Z,29.70
2022-07-26T11:34:45.531Z,30.20
2022-07-26T11:37:13.563Z,30.70
2022-07-26T11:39:40.728Z,30.70
2022-07-26T11:42:13.228Z,30.90
2022-07-26T11:44:45.995Z,31.10
2022-07-26T11:47:20.077Z,31.20
2022-07-26T11:50:00.500Z,31.00
2022-07-26T11:52:35.678Z,31.00
2022-07-26T11:55:02.646Z,31.20
2022-07-26T11:57:31.025Z,31.60
2022-07-26T11:59:59.132Z,31.90
2022-07-26T12:02:26.604Z,32.10
2022-07-26T12:05:19.166Z,32.00
2022-07-26T12:07:59.419Z,32.20
2022-07-26T12:10:27.737Z,32.10
2022-07-26T12:13:12.788Z,32.00
2022-07-26T12:15:53.597Z,32.20
2022-07-26T12:18:29.390Z,32.50
2022-07-26T12:21:06.259Z,32.60
2022-07-26T12:23:49.295Z,32.40
2022-07-26T12:26:28.347Z,32.30
2022-07-26T12:28:57.308Z,31.90
2022-07-26T12:31:30.157Z,31.80
2022-07-26T12:33:58.194Z,31.90
2022-07-26T12:36:27.977Z,32.00
2022-07-26T12:39:00.740Z,32.20
2022-07-26T12:41:32.038Z,32.50
2022-07-26T12:43:59.949Z,32.60
2022-07-26T12:46:27.358Z,32.90
2022-07-26T12:48:59.730Z,33.10
2022-07-26T12:51:27.503Z,32.60
2022-07-26T12:53:54.605Z,32.40
2022-07-26T12:56:21.675Z,32.60
2022-07-26T12:58:48.653Z,32.90
2022-07-26T13:01:16.710Z,32.90
2022-07-26T13:03:44.357Z,32.80
2022-07-26T13:06:12.666Z,32.70
2022-07-26T13:08:40.559Z,32.50
2022-07-26T13:11:07.654Z,31.90
2022-07-26T13:13:34.589Z,31.40
2022-07-26T13:16:01.434Z,31.20
2022-07-26T13:18:28.422Z,31.10
2022-07-26T13:20:56.484Z,31.10
2022-07-26T13:23:26.649Z,31.40
2022-07-26T13:25:53.817Z,31.60
2022-07-26T13:28:21.553Z,31.80
2022-07-26T13:30:48.644Z,32.10
2022-07-26T13:33:16.692Z,32.30
2022-07-26T13:35:43.776Z,32.80
2022-07-26T13:38:10.782Z,33.00
2022-07-26T13:40:37.905Z,33.40
2022-07-26T13:43:05.502Z,33.10
2022-07-26T13:45:32.473Z,32.50
2022-07-26T13:47:59.856Z,32.30
2022-07-26T13:50:28.133Z,32.20
2022-07-26T13:52:56.249Z,32.40
2022-07-26T13:55:24.229Z,32.60
2022-07-26T13:57:56.799Z,32.60
2022-07-26T14:00:28.944Z,32.80
2022-07-26T14:02:59.080Z,32.90
2022-07-26T14:05:27.831Z,32.40
2022-07-26T14:07:55.413Z,32.00
2022-07-26T14:10:23.557Z,31.60
2022-07-26T14:12:50.618Z,31.40
2022-07-26T14:15:22.160Z,31.00
2022-07-26T14:17:50.980Z,30.70
2022-07-26T14:20:18.233Z,30.50
2022-07-26T14:22:45.633Z,30.60
2022-07-26T14:25:13.005Z,30.40
2022-07-26T14:27:39.965Z,30.30
2022-07-26T14:30:07.336Z,30.40
2022-07-26T14:32:34.369Z,30.50
2022-07-26T14:35:01.553Z,30.20
2022-07-26T14:37:42.813Z,30.10
2022-07-26T14:40:15.671Z,30.00
2022-07-26T14:42:43.565Z,29.80
2022-07-26T14:45:11.051Z,29.90
2022-07-26T14:47:38.588Z,30.30
2022-07-26T14:50:08.031Z,30.50
2022-07-26T14:52:48.032Z,30.60
2022-07-26T14:55:18.208Z,30.40
2022-07-26T14:57:47.451Z,30.30
2022-07-26T15:00:17.134Z,30.20
2022-07-26T15:02:47.774Z,30.10
2022-07-26T15:05:16.121Z,30.40
2022-07-26T15:07:44.090Z,31.00
2022-07-26T15:10:12.831Z,31.30
2022-07-26T15:12:40.805Z,31.40
2022-07-26T15:15:08.576Z,31.50
2022-07-26T15:17:35.665Z,31.30
2022-07-26T15:20:03.764Z,31.00
2022-07-26T15:22:30.829Z,30.60
2022-07-26T15:24:57.722Z,30.40
2022-07-26T15:27:24.611Z,30.10
2022-07-26T15:29:51.559Z,29.70
2022-07-26T15:32:20.479Z,29.80
2022-07-26T15:34:47.425Z,30.20
2022-07-26T15:37:14.345Z,30.50
2022-07-26T15:39:41.459Z,30.30
2022-07-26T15:42:09.256Z,30.40
2022-07-26T15:44:38.704Z,30.80
2022-07-26T15:47:05.786Z,31.10
2022-07-26T15:49:32.887Z,31.50
2022-07-26T15:52:01.176Z,31.80
2022-07-26T15:54:28.071Z,32.20
2022-07-26T15:56:55.104Z,32.40
2022-07-26T15:59:22.089Z,32.30
2022-07-26T16:01:49.569Z,32.20
2022-07-26T16:04:16.611Z,31.80
2022-07-26T16:06:43.687Z,31.40
2022-07-26T16:09:17.102Z,31.30
2022-07-26T16:11:45.095Z,31.10
2022-07-26T16:14:12.514Z,31.30
2022-07-26T16:16:39.798Z,31.30
2022-07-26T16:19:06.912Z,31.50
2022-07-26T16:21:34.038Z,31.60
2022-07-26T16:24:06.501Z,31.50
2022-07-26T16:26:34.542Z,31.30
2022-07-26T16:29:01.526Z,31.40
2022-07-26T16:31:28.621Z,31.20
2022-07-26T16:33:55.596Z,31.10
2022-07-26T16:36:22.759Z,31.30
2022-07-26T16:38:49.776Z,31.30
2022-07-26T16:41:16.935Z,31.30
2022-07-26T16:43:44.270Z,31.40
2022-07-26T16:46:11.504Z,31.40
2022-07-26T16:48:38.987Z,31.10
2022-07-26T16:51:06.067Z,30.80
2022-07-26T16:53:33.167Z,30.70
2022-07-26T16:56:00.474Z,30.30
2022-07-26T16:58:27.957Z,29.80
2022-07-26T17:00:55.153Z,29.50
2022-07-26T17:03:23.651Z,29.30
2022-07-26T17:05:51.347Z,29.20
2022-07-26T17:08:18.686Z,29.10
2022-07-26T17:10:46.213Z,29.10
2022-07-26T17:13:13.282Z,29.30
2022-07-26T17:15:40.288Z,29.50
2022-07-26T17:18:07.463Z,29.60
2022-07-26T17:20:34.355Z,29.50
2022-07-26T17:23:01.256Z,29.00
2022-07-26T17:25:28.391Z,28.90
2022-07-26T17:27:56.084Z,28.80
2022-07-26T17:30:23.511Z,28.90
2022-07-26T17:32:50.620Z,28.70
2022-07-26T17:35:17.718Z,28.60
2022-07-26T17:37:45.259Z,28.40
2022-07-26T17:40:16.449Z,28.30
2022-07-26T17:42:43.547Z,28.20
2022-07-26T17:45:11.027Z,28.10
2022-07-26T17:47:38.020Z,28.10
2022-07-26T17:50:35.486Z,28.30
2022-07-26T17:52:54.503Z,28.60
2022-07-26T17:55:22.165Z,28.70
2022-07-26T17:57:50.240Z,28.90
2022-07-26T18:00:22.361Z,29.00
2022-07-26T18:02:49.918Z,29.10
2022-07-26T18:05:18.414Z,29.00
2022-07-26T18:07:45.943Z,28.50
2022-07-26T18:10:14.439Z,28.10
2022-07-26T18:12:41.945Z,27.90
2022-07-26T18:15:09.446Z,27.80
2022-07-26T18:17:37.068Z,27.70
2022-07-26T18:20:05.790Z,27.40
2022-07-26T18:22:34.415Z,27.10
2022-07-26T18:25:01.574Z,26.90
2022-07-26T18:27:28.928Z,26.70
2022-07-26T18:29:56.736Z,26.70
2022-07-26T18:32:24.814Z,26.60
2022-07-26T18:34:52.691Z,26.80
2022-07-26T18:37:20.905Z,26.80
2022-07-26T18:39:54.074Z,26.90
2022-07-26T18:42:24.487Z,26.70
2022-07-26T18:44:51.402Z,26.50
2022-07-26T18:47:18.968Z,26.30
2022-07-26T18:49:45.919Z,26.10
2022-07-26T18:52:12.879Z,25.90
2022-07-26T18:54:40.207Z,25.80
2022-07-26T18:57:07.145Z,25.60
2022-07-26T18:59:34.107Z,25.50
2022-07-26T19:02:01.250Z,25.40
2022-07-26T19:04:29.202Z,25.30
2022-07-26T19:06:56.710Z,25.30
2022-07-26T19:09:23.776Z,25.10
2022-07-26T19:11:50.732Z,25.00
2022-07-26T19:14:17.598Z,24.90
2022-07-26T19:16:45.191Z,24.80
2022-07-26T19:19:12.482Z,24.70
2022-07-26T19:21:45.336Z,24.70
2022-07-26T19:24:13.164Z,24.60
2022-07-26T19:26:40.000Z,24.50
2022-07-26T19:29:06.945Z,24.40
2022-07-26T19:31:34.881Z,24.40
2022-07-26T19:34:03.709Z,24.40
2022-07-26T19:36:30.919Z,24.40
2022-07-26T19:39:01.073Z,24.40
2022-07-26T19:41:28.282Z,24.40
2022-07-26T19:43:55.469Z,24.30
2022-07-26T19:46:22.378Z,24.20
2022-07-26T19:48:49.363Z,24.10
2022-07-26T19:51:16.445Z,23.90
2022-07-26T19:53:45.492Z,23.70
2022-07-26T19:56:12.641Z,23.60
2022-07-26T19:58:40.116Z,23.50
2022-07-26T20:01:07.965Z,23.50
2022-07-26T20:03:35.118Z,23.50
2022-07-26T20:06:02.162Z,23.50
2022-07-26T20:08:29.167Z,23.60
2022-07-26T20:10:56.078Z,23.60
2022-07-26T20:13:23.150Z,23.50
2022-07-26T20:15:50.179Z,23.40
2022-07-26T20:18:19.556Z,23.40
2022-07-26T20:20:46.419Z,23.40
2022-07-26T20:23:13.445Z,23.30
2022-07-26T20:25:40.365Z,23.20
2022-07-26T20:28:07.215Z,23.20
2022-07-26T20:30:34.179Z,23.20
2022-07-26T20:33:01.177Z,23.10
2022-07-26T20:35:29.021Z,23.10
2022-07-26T20:37:55.955Z,23.00
2022-07-26T20:40:23.156Z,23.00
2022-07-26T20:42:51.652Z,22.90
2022-07-26T20:45:18.599Z,22.90
2022-07-26T20:47:45.541Z,22.80
2022-07-26T20:50:12.686Z,22.80
2022-07-26T20:52:40.186Z,22.80
2022-07-26T20:55:08.064Z,22.80
2022-07-26T20:57:35.302Z,22.60
2022-07-26T21:00:04.753Z,22.60
2022-07-26T21:02:31.844Z,22.60
2022-07-26T21:04:59.334Z,22.50
2022-07-26T21:07:53.536Z,22.50
2022-07-26T21:10:14.449Z,22.40
2022-07-26T21:12:41.786Z,22.30
2022-07-26T21:15:09.251Z,22.20
2022-07-26T21:17:36.551Z,22.20
2022-07-26T21:20:04.962Z,22.20
2022-07-26T21:22:31.913Z,22.10
2022-07-26T21:24:58.984Z,22.10
2022-07-26T21:27:26.018Z,22.10
2022-07-26T21:29:53.050Z,22.10
2022-07-26T21:32:19.967Z,22.00
2022-07-26T21:34:46.930Z,21.90
2022-07-26T21:37:13.881Z,21.90
2022-07-26T21:39:40.744Z,21.90
2022-07-26T21:42:07.896Z,21.90
2022-07-26T21:44:34.761Z,21.80
2022-07-26T21:47:01.924Z,21.80
2022-07-26T21:49:29.076Z,21.80
2022-07-26T21:51:56.047Z,21.80
2022-07-26T21:54:22.981Z,21.70
2022-07-26T21:56:50.298Z,21.70
2022-07-26T21:59:17.387Z,21.70
2022-07-26T22:01:44.266Z,21.70
2022-07-26T22:04:11.456Z,21.70
2022-07-26T22:06:38.407Z,21.70
2022-07-26T22:09:05.385Z,21.60
2022-07-26T22:11:32.456Z,21.50
2022-07-26T22:13:59.377Z,21.40
2022-07-26T22:16:26.365Z,21.10
2022-07-26T22:18:53.379Z,20.90
2022-07-26T22:21:20.510Z,20.90
2022-07-26T22:23:48.932Z,20.90
2022-07-26T22:26:16.233Z,20.90
2022-07-26T22:28:43.239Z,20.90
2022-07-26T22:31:10.217Z,20.90
2022-07-26T22:33:37.376Z,21.00
2022-07-26T22:36:04.658Z,20.90
2022-07-26T22:38:31.771Z,20.90
2022-07-26T22:40:59.859Z,20.80
2022-07-26T22:43:26.767Z,20.80
2022-07-26T22:45:53.752Z,20.80
2022-07-26T22:48:20.699Z,20.80
2022-07-26T22:50:47.618Z,20.70
2022-07-26T22:53:14.543Z,20.70
2022-07-26T22:55:41.515Z,20.60
2022-07-26T22:58:08.385Z,20.50
2022-07-26T23:00:35.505Z,20.50
2022-07-26T23:03:02.809Z,20.40
2022-07-26T23:05:45.136Z,20.30
2022-07-26T23:08:46.493Z,20.30
2022-07-26T23:11:02.332Z,20.30
2022-07-26T23:13:29.336Z,20.20
2022-07-26T23:16:00.343Z,20.20
2022-07-26T23:18:29.189Z,20.30
2022-07-26T23:20:56.129Z,20.20
2022-07-26T23:23:24.997Z,20.10
2022-07-26T23:25:56.367Z,20.00
2022-07-26T23:28:35.482Z,20.00
2022-07-26T23:31:06.311Z,20.00
2022-07-26T23:33:52.257Z,19.90
2022-07-26T23:36:20.504Z,19.80
2022-07-26T23:38:47.487Z,19.70
2022-07-26T23:41:14.419Z,19.60
2022-07-26T23:43:41.391Z,19.50
2022-07-26T23:46:08.274Z,19.50
2022-07-26T23:48:35.244Z,19.50
2022-07-26T23:51:02.153Z,19.40
2022-07-26T23:53:29.130Z,19.50
2022-07-26T23:55:56.036Z,19.40
2022-07-26T23:58:23.025Z,19.30
